Glacier National Park, MT

1:20 AM MDT on September 26, 2016 (GMT -0600)
Cut Bank Municipal | | Change Station

Elev 3855 ft 48.61 °N, 112.38 °W | Updated 24 minutes ago

Clear
Clear
48 °F
Feels Like 48 °F
N
10
Wind Variable Wind from WNW

Today
High -- | Low -- °F
--% Chance of Precip.
Yesterday
High -- | Low -- °F
Precip. -- in
Pressure 30.27 in
Visibility 10.0 miles
Clouds Clear
Dew Point 40 °F
Humidity 74%
Rainfall 0.00 in
Snow Depth Not available.
7:27 AM 7:22 PM
Waning Crescent, 21% visible
METAR KCTB 260656Z AUTO 29009KT 10SM CLR 09/04 A3030 RMK AO2 SLP250 T00890044 402000022
Pressure 30.27 in
Visibility 10.0 miles
Clouds Clear
Dew Point 40 °F
Humidity 74%
Rainfall 0.00 in
Snow Depth Not available.
7:27 AM 7:22 PM
Waning Crescent, 21% visible
METAR KCTB 260656Z AUTO 29009KT 10SM CLR 09/04 A3030 RMK AO2 SLP250 T00890044 402000022

10-Day Weather Forecast

Almanac

Astronomy

Sep. 26, 2016 Rise Set
Actual Time
Civil Twilight
Nautical Twilight
Astronomical Twilight
Moon
Length of Visible Light
Length of Day
Tomorrow will be .
, % of the Moon is Illuminated

Today's Extremes

State Highs State Lows

Community

WunderPhotos

Upload Photos

1,941,853 photos uploaded!

WunderBlog® & News

Nearby

Air Quality

  Air Quality AQ Index Pollutant
Not available.

Snow Depth

Station Depth Elevation

Earthquake Activity

City Distance Mag. Time & Date
Minimum magnitude displayed is 2.5.

Coastal Water Temperatures

Place Temperature

Stations

Nearby Weather Stations

Station Location Temp. Windchill Dew Point Humidity Wind Precip. Elev Updated Type
                   

Watches & Warnings

There are currently no watches in effect.